Stangelville, Wisconsin
Current Conditions -  °F | °C
As of 5:53 AM on Thursday 29 Jan 2015 (Local Time) from KGRB Reporting Station
Haze Haze  
Wind Chill: 21°   Ceiling: 3000
Heat Index: 30°   Visibility: 5mi
Dew Point: 25°   Wind: 12mph
Humidity: 82%   Direction: 320°NW
Pressure: 29.77"   Gusts: NA
Location:  44.363°N, 87.8227°W
Report Text: KGRB 291153Z 32010KT 5SM HZ OVC030 M01/M04 A2977 RMK AO2 SLP091 T10111039 10000 21011 55002
Loading
Personal Weather Stations






























Interactive Weather Map New forecast layout! Learn more

10-Day Weather Forecast

Advertisements
Track Severe Weather on mobile